Time;durP1;ratioP1;P1;durP2;ratioP2;P2;SDS_P1;SDS_P2;PMS_P1;PMS_P2;Temp;Humidity;BMP_temperature;BMP_pressure;BME280_temperature;BME280_humidity;BME280_pressure;Samples;Min_cycle;Max_cycle;Signal;HPM_P1;HPM_P2
2022/12/23 00:01:00;;;;;;;334.38;51.50;;;7.60;99.90;;;;;;5037967;28;20463;-68
2022/12/23 00:03:27;;;;;;;285.17;52.00;;;7.60;99.90;;;;;;5030055;28;20041;-68
2022/12/23 00:05:53;;;;;;;293.35;53.83;;;7.60;99.90;;;;;;5028402;28;20042;-68
2022/12/23 00:08:23;;;;;;;376.45;58.60;;;7.60;99.90;;;;;;5028567;28;20537;-68
2022/12/23 00:10:50;;;;;;;179.93;41.17;;;7.60;99.90;;;;;;5028487;28;20609;-67
2022/12/23 00:16:09;;;;;;;226.82;44.28;;;7.60;99.90;;;;;;5025062;28;20613;-69
2022/12/23 00:18:36;;;;;;;241.50;49.13;;;7.60;99.90;;;;;;5027936;28;20041;-69
2022/12/23 00:21:07;;;;;;;346.80;55.35;;;7.60;99.90;;;;;;5035829;28;20049;-69
2022/12/23 00:23:34;;;;;;;249.80;48.45;;;7.60;99.90;;;;;;5029338;28;20043;-69
2022/12/23 00:26:01;;;;;;;134.27;34.72;;;7.60;99.90;;;;;;5028265;28;20037;-69
2022/12/23 00:28:28;;;;;;;207.70;39.88;;;7.60;99.90;;;;;;5028213;28;20044;-69
2022/12/23 00:30:58;;;;;;;261.10;51.42;;;7.60;99.90;;;;;;5028227;28;20044;-69
2022/12/23 00:33:28;;;;;;;115.70;34.28;;;7.60;99.90;;;;;;5029731;28;20064;-69
2022/12/23 00:35:53;;;;;;;223.48;47.05;;;7.60;99.90;;;;;;5027820;28;20057;-69
2022/12/23 00:42:52;;;;;;;328.95;54.63;;;7.60;99.90;;;;;;5027593;28;20128;-69
2022/12/23 00:43:54;;;;;;;157.40;37.65;;;7.60;99.90;;;;;;5030623;28;20045;-69
2022/12/23 00:46:21;;;;;;;92.47;32.65;;;7.60;99.90;;;;;;5031560;28;20038;-69
2022/12/23 00:51:31;;;;;;;374.88;57.28;;;7.60;99.90;;;;;;5032403;28;20099;-69
2022/12/23 00:53:57;;;;;;;214.38;42.95;;;7.60;99.90;;;;;;5030974;28;20116;-69
2022/12/23 00:56:23;;;;;;;238.35;46.90;;;7.60;99.90;;;;;;5032112;28;20053;-69
2022/12/23 00:58:49;;;;;;;223.30;45.97;;;7.60;99.90;;;;;;5032417;28;20116;-69
2022/12/23 01:06:43;;;;;;;114.07;35.58;;;7.50;99.90;;;;;;5030980;28;20054;-69
2022/12/23 01:09:08;;;;;;;109.88;37.25;;;7.50;99.90;;;;;;5030306;28;20037;-69
2022/12/23 01:11:34;;;;;;;292.73;54.38;;;7.60;99.90;;;;;;5032382;28;20103;-69
2022/12/23 01:14:00;;;;;;;147.32;38.90;;;7.60;99.90;;;;;;5030815;28;20498;-69
2022/12/23 01:16:26;;;;;;;158.88;40.92;;;7.60;99.90;;;;;;5030629;28;20520;-69
2022/12/23 01:18:52;;;;;;;221.07;43.67;;;7.60;99.90;;;;;;5030790;28;20048;-69
2022/12/23 01:21:17;;;;;;;146.65;36.65;;;7.60;99.90;;;;;;5030716;28;20558;-69
2022/12/23 01:23:43;;;;;;;116.45;36.33;;;7.60;99.90;;;;;;5030506;28;20521;-69
2022/12/23 01:26:10;;;;;;;150.65;38.35;;;7.60;99.90;;;;;;5032323;28;20038;-69
2022/12/23 01:28:36;;;;;;;172.57;41.47;;;7.60;99.90;;;;;;5033119;28;20034;-69
2022/12/23 01:31:04;;;;;;;110.10;33.13;;;7.60;99.90;;;;;;5031404;28;20060;-69
2022/12/23 01:33:32;;;;;;;232.52;47.13;;;7.60;99.90;;;;;;5031704;28;20037;-69
2022/12/23 01:36:00;;;;;;;117.90;35.97;;;7.60;99.90;;;;;;5029732;28;20064;-69
2022/12/23 01:38:26;;;;;;;260.70;51.28;;;7.60;99.90;;;;;;5030316;28;20418;-69
2022/12/23 01:40:52;;;;;;;277.40;51.55;;;7.60;99.90;;;;;;5031560;28;20075;-69
2022/12/23 01:43:19;;;;;;;250.05;49.28;;;7.60;99.90;;;;;;5030161;28;20049;-69
2022/12/23 01:45:45;;;;;;;218.65;46.10;;;7.60;99.90;;;;;;5030098;28;20433;-69
2022/12/23 01:48:18;;;;;;;165.95;41.70;;;7.60;99.90;;;;;;5030113;28;20130;-69
2022/12/23 01:51:01;;;;;;;126.85;37.45;;;7.60;99.90;;;;;;5029516;28;20520;-69
2022/12/23 01:53:30;;;;;;;129.27;38.17;;;7.50;99.90;;;;;;5029991;28;20547;-69
2022/12/23 01:56:06;;;;;;;148.70;37.92;;;7.50;99.90;;;;;;5029928;28;20057;-69
2022/12/23 01:58:50;;;;;;;191.57;41.65;;;7.60;99.90;;;;;;5030054;28;20124;-69
2022/12/23 02:04:10;;;;;;;135.32;37.10;;;7.60;99.90;;;;;;5030069;28;20049;-69
2022/12/23 02:09:34;;;;;;;454.92;66.85;;;7.60;99.90;;;;;;5031350;28;20052;-69
2022/12/23 02:12:02;;;;;;;215.60;45.45;;;7.60;99.90;;;;;;5029894;28;20041;-68
2022/12/23 02:17:43;;;;;;;152.10;40.38;;;7.60;99.90;;;;;;5029535;28;20107;-68
2022/12/23 02:20:36;;;;;;;196.77;49.20;;;7.50;99.90;;;;;;5029139;28;20425;-68
2022/12/23 02:23:24;;;;;;;219.25;47.13;;;7.50;99.90;;;;;;5029743;28;20432;-68
2022/12/23 02:25:59;;;;;;;160.10;43.20;;;7.50;99.90;;;;;;5030890;28;20065;-66
2022/12/23 02:28:30;;;;;;;223.43;47.08;;;7.50;99.90;;;;;;5029381;28;20080;-67
2022/12/23 02:31:23;;;;;;;253.05;51.25;;;7.50;99.90;;;;;;5029729;28;20444;-68
2022/12/23 02:33:49;;;;;;;361.45;60.47;;;7.50;99.90;;;;;;5029654;28;20034;-68
2022/12/23 02:36:31;;;;;;;324.35;57.85;;;7.50;99.90;;;;;;4988378;28;1210586;-67
2022/12/23 02:39:20;;;;;;;129.35;39.67;;;7.50;99.90;;;;;;5030290;28;20053;-67
2022/12/23 02:41:58;;;;;;;288.65;54.05;;;7.50;99.90;;;;;;5030512;28;20049;-67
2022/12/23 02:44:39;;;;;;;205.93;46.38;;;7.50;99.90;;;;;;5031682;28;20041;-67
2022/12/23 02:47:10;;;;;;;325.98;56.45;;;7.50;99.90;;;;;;5030166;28;20513;-68
2022/12/23 02:49:41;;;;;;;317.08;58.22;;;7.50;99.90;;;;;;5029777;28;20531;-68
2022/12/23 02:52:12;;;;;;;299.67;54.15;;;7.50;99.90;;;;;;5030003;28;20038;-67
2022/12/23 02:54:44;;;;;;;294.35;54.10;;;7.50;99.90;;;;;;5030333;28;20081;-67
2022/12/23 02:57:13;;;;;;;378.73;59.05;;;7.40;99.90;;;;;;5031375;28;20041;-67
2022/12/23 02:59:45;;;;;;;404.23;59.23;;;7.40;99.90;;;;;;5029912;28;20085;-69
2022/12/23 03:02:11;;;;;;;333.02;54.20;;;7.40;99.90;;;;;;5029960;28;20041;-69
2022/12/23 03:04:40;;;;;;;276.05;49.65;;;7.40;99.90;;;;;;5030710;28;20082;-69
2022/12/23 03:07:16;;;;;;;364.92;57.38;;;7.40;99.90;;;;;;5029088;28;20124;-69
2022/12/23 03:09:59;;;;;;;405.02;59.40;;;7.40;99.90;;;;;;5031456;28;20190;-69
2022/12/23 03:12:35;;;;;;;393.33;61.85;;;7.40;99.90;;;;;;5013343;28;20048;-69
2022/12/23 03:15:16;;;;;;;368.75;59.42;;;7.40;99.90;;;;;;5031148;28;20060;-69
2022/12/23 03:17:45;;;;;;;264.15;49.65;;;7.30;99.90;;;;;;5030627;28;20041;-69
2022/12/23 03:20:13;;;;;;;273.88;51.67;;;7.40;99.90;;;;;;5029358;28;20041;-69
2022/12/23 03:23:07;;;;;;;305.98;53.33;;;7.30;99.90;;;;;;5029775;28;20410;-69
2022/12/23 03:25:40;;;;;;;207.40;44.47;;;7.30;99.90;;;;;;5012921;28;20501;-68
2022/12/23 03:28:15;;;;;;;166.45;39.75;;;7.30;99.90;;;;;;5029618;28;20145;-68
2022/12/23 03:30:46;;;;;;;196.30;44.10;;;7.30;99.90;;;;;;5013164;28;20091;-69
2022/12/23 03:33:26;;;;;;;265.00;47.95;;;7.30;99.90;;;;;;5029197;28;20041;-69
2022/12/23 03:35:56;;;;;;;;;;;7.30;99.90;;;;;;5030874;28;20597;-68
2022/12/23 03:38:23;;;;;;;205.47;39.67;;;7.30;99.90;;;;;;5029257;28;19924;-68
2022/12/23 03:40:55;;;;;;;213.57;39.70;;;7.30;99.90;;;;;;5030809;28;20064;-68
2022/12/23 03:43:33;;;;;;;145.20;33.70;;;7.30;99.90;;;;;;5029481;28;20045;-69
2022/12/23 03:46:05;;;;;;;349.02;47.88;;;7.30;99.90;;;;;;5030531;28;20041;-67
2022/12/23 03:48:46;;;;;;;235.23;44.10;;;7.30;99.90;;;;;;5030201;28;20426;-67
2022/12/23 03:51:16;;;;;;;353.73;51.42;;;7.30;99.90;;;;;;5012473;28;20072;-67
2022/12/23 03:53:53;;;;;;;229.55;41.28;;;7.30;99.90;;;;;;5029001;28;20045;-67
2022/12/23 03:56:34;;;;;;;263.27;45.00;;;7.30;99.90;;;;;;5012558;28;20678;-68
2022/12/23 03:59:20;;;;;;;187.70;38.97;;;7.30;99.90;;;;;;5030148;28;20096;-69
2022/12/23 04:02:12;;;;;;;208.00;38.80;;;7.30;99.90;;;;;;5028918;28;20462;-68
2022/12/23 04:05:18;;;;;;;400.08;53.55;;;7.30;99.90;;;;;;5013977;28;20053;-68
2022/12/23 04:08:03;;;;;;;164.05;33.40;;;7.30;99.90;;;;;;5030218;28;20037;-69
2022/12/23 04:10:29;;;;;;;227.25;37.78;;;7.30;99.90;;;;;;5030285;28;20046;-69
2022/12/23 04:12:55;;;;;;;128.20;32.22;;;7.30;99.90;;;;;;5028967;28;20171;-69
2022/12/23 04:15:23;;;;;;;235.07;40.05;;;7.30;99.90;;;;;;5028918;28;20124;-69
2022/12/23 04:17:50;;;;;;;147.73;31.35;;;7.30;99.90;;;;;;5030019;28;20124;-69
2022/12/23 04:20:16;;;;;;;129.50;34.90;;;7.30;99.90;;;;;;5028549;28;20059;-70
2022/12/23 04:22:43;;;;;;;223.07;38.85;;;7.30;99.90;;;;;;5028730;28;20041;-69
2022/12/23 04:25:10;;;;;;;274.60;44.60;;;7.30;99.90;;;;;;5028454;28;20131;-69
2022/12/23 04:27:36;;;;;;;144.45;35.67;;;7.30;99.90;;;;;;5028829;28;20514;-69
2022/12/23 04:30:03;;;;;;;129.05;34.15;;;7.30;99.90;;;;;;5029116;28;20077;-69
2022/12/23 04:32:29;;;;;;;174.95;39.10;;;7.30;99.90;;;;;;5029791;28;20038;-68
2022/12/23 04:34:55;;;;;;;142.93;34.53;;;7.20;99.90;;;;;;5029035;28;20126;-68
2022/12/23 04:37:20;;;;;;;160.70;37.50;;;7.30;99.90;;;;;;5029573;28;20056;-68
2022/12/23 04:39:46;;;;;;;182.57;42.90;;;7.20;99.90;;;;;;5029790;28;20470;-68
2022/12/23 04:42:12;;;;;;;565.97;59.72;;;7.20;99.90;;;;;;5030061;28;20493;-68
2022/12/23 04:44:38;;;;;;;241.07;42.85;;;7.10;99.90;;;;;;5029139;28;20037;-68
2022/12/23 04:47:03;;;;;;;429.15;58.45;;;7.10;99.90;;;;;;5029643;28;20132;-68
2022/12/23 04:49:30;;;;;;;330.48;50.78;;;7.10;99.90;;;;;;5029443;28;20441;-68
2022/12/23 04:51:56;;;;;;;236.65;43.85;;;7.10;99.90;;;;;;5029294;28;20702;-68
2022/12/23 04:54:22;;;;;;;311.38;50.47;;;7.10;99.90;;;;;;5029502;28;20073;-69
2022/12/23 04:56:48;;;;;;;586.25;72.88;;;7.00;99.90;;;;;;5028303;28;20073;-69
2022/12/23 04:59:14;;;;;;;648.05;67.60;;;7.00;99.90;;;;;;5027853;28;20894;-68
2022/12/23 05:01:41;;;;;;;653.83;73.55;;;7.00;99.90;;;;;;5028428;28;20053;-68
2022/12/23 05:04:08;;;;;;;327.00;47.10;;;7.00;99.90;;;;;;5028622;28;20429;-68
2022/12/23 05:06:34;;;;;;;630.40;75.05;;;7.00;99.90;;;;;;5027950;28;20049;-68
2022/12/23 05:09:00;;;;;;;525.97;62.00;;;7.00;99.90;;;;;;5029559;28;20069;-68
2022/12/23 05:11:25;;;;;;;556.03;64.65;;;7.00;99.90;;;;;;5028150;28;20081;-68
2022/12/23 05:13:51;;;;;;;613.58;74.47;;;7.00;99.90;;;;;;5027942;28;20045;-68
2022/12/23 05:16:17;;;;;;;359.38;50.28;;;7.00;99.90;;;;;;5029559;28;20582;-69
2022/12/23 05:18:43;;;;;;;587.40;63.70;;;7.00;99.90;;;;;;5028036;28;20041;-68
2022/12/23 05:21:09;;;;;;;784.95;83.10;;;7.00;99.90;;;;;;5011642;28;20045;-68
2022/12/23 05:23:35;;;;;;;737.05;73.80;;;7.10;99.90;;;;;;5027930;28;20238;-69
2022/12/23 05:26:01;;;;;;;491.50;54.70;;;7.10;99.90;;;;;;5027837;28;20045;-70
2022/12/23 05:28:27;;;;;;;602.90;58.83;;;7.10;99.90;;;;;;5011348;28;20034;-69
2022/12/23 05:31:01;;;;;;;410.00;43.97;;;7.10;99.90;;;;;;5033076;28;20132;-69
2022/12/23 05:33:27;;;;;;;643.25;65.03;;;7.10;99.90;;;;;;5032997;28;20037;-69
2022/12/23 05:35:53;;;;;;;578.95;64.18;;;7.00;99.90;;;;;;5031498;28;20057;-68
2022/12/23 05:38:19;;;;;;;620.47;66.82;;;7.00;99.90;;;;;;5032917;28;20049;-68
2022/12/23 05:40:45;;;;;;;533.45;60.72;;;7.00;99.90;;;;;;5015105;28;20045;-69
2022/12/23 05:43:11;;;;;;;539.70;59.97;;;6.90;99.90;;;;;;5030901;28;20041;-70
2022/12/23 05:45:37;;;;;;;258.42;37.00;;;6.90;99.90;;;;;;5032645;28;20119;-70
2022/12/23 05:48:03;;;;;;;216.85;31.48;;;6.90;99.90;;;;;;5031295;28;20470;-70
2022/12/23 05:50:29;;;;;;;286.90;35.78;;;6.90;99.90;;;;;;5031321;28;20033;-70
2022/12/23 05:52:54;;;;;;;272.10;35.05;;;6.90;99.90;;;;;;5032611;28;20512;-70
2022/12/23 05:55:21;;;;;;;251.98;35.28;;;6.80;99.90;;;;;;5031088;28;20091;-68
2022/12/23 05:57:46;;;;;;;229.20;34.70;;;6.80;99.90;;;;;;5032036;28;20048;-70
2022/12/23 06:00:13;;;;;;;500.17;53.53;;;6.80;99.90;;;;;;5031074;28;20049;-69
2022/12/23 06:02:39;;;;;;;592.60;59.45;;;6.80;99.90;;;;;;5031105;28;20084;-70
2022/12/23 06:05:05;;;;;;;545.20;59.08;;;6.80;99.90;;;;;;5014547;28;20049;-69
2022/12/23 06:07:31;;;;;;;220.52;32.70;;;6.80;99.90;;;;;;5032420;28;20037;-69
2022/12/23 06:09:57;;;;;;;194.90;32.47;;;6.80;99.90;;;;;;5031034;28;20033;-70
2022/12/23 06:12:23;;;;;;;137.25;28.60;;;6.80;99.90;;;;;;5030411;28;20037;-69
2022/12/23 06:14:48;;;;;;;203.88;33.83;;;6.80;99.90;;;;;;5030655;28;20124;-70
2022/12/23 06:17:14;;;;;;;170.02;32.13;;;6.70;99.90;;;;;;5032271;28;20033;-69
2022/12/23 06:19:40;;;;;;;194.85;33.38;;;6.80;99.90;;;;;;5030639;28;20045;-69
2022/12/23 06:22:06;;;;;;;330.90;43.63;;;6.80;99.90;;;;;;5030722;28;20045;-69
2022/12/23 06:24:31;;;;;;;194.82;30.88;;;6.70;99.90;;;;;;5030828;28;20033;-69
2022/12/23 06:26:57;;;;;;;183.10;34.38;;;6.70;99.90;;;;;;5029990;28;20521;-69
2022/12/23 06:29:23;;;;;;;448.08;50.55;;;6.70;99.90;;;;;;5031040;28;20045;-69
2022/12/23 06:31:49;;;;;;;198.02;34.08;;;6.80;99.90;;;;;;5030534;28;20037;-69
2022/12/23 06:34:15;;;;;;;108.07;25.95;;;6.70;99.90;;;;;;5031547;28;20044;-69
2022/12/23 06:36:41;;;;;;;211.60;33.80;;;6.70;99.90;;;;;;5031574;28;20123;-69
2022/12/23 06:39:08;;;;;;;438.70;54.20;;;6.80;99.90;;;;;;5030500;28;20413;-69
2022/12/23 06:41:34;;;;;;;324.15;43.58;;;6.80;99.90;;;;;;5028922;28;20379;-69
2022/12/23 06:44:00;;;;;;;102.22;26.90;;;6.80;99.90;;;;;;5030407;28;20048;-69
2022/12/23 06:46:25;;;;;;;126.63;26.95;;;6.80;99.90;;;;;;5030393;28;20084;-69
2022/12/23 06:48:51;;;;;;;77.60;22.95;;;6.80;99.90;;;;;;5030412;28;20091;-68
2022/12/23 06:51:17;;;;;;;84.22;24.00;;;6.80;99.90;;;;;;5013551;28;20456;-68
2022/12/23 06:53:43;;;;;;;85.03;22.85;;;6.80;99.90;;;;;;5031516;28;20047;-70
2022/12/23 06:56:09;;;;;;;173.48;33.83;;;6.80;99.90;;;;;;5013327;28;20052;-69
2022/12/23 06:58:34;;;;;;;160.77;31.63;;;6.80;99.90;;;;;;5031330;28;20052;-69
2022/12/23 07:01:00;;;;;;;163.48;28.17;;;6.80;99.90;;;;;;5013473;28;20060;-69
2022/12/23 07:03:26;;;;;;;175.00;29.35;;;6.80;99.90;;;;;;5029850;28;20103;-69
2022/12/23 07:05:52;;;;;;;122.97;27.33;;;6.80;99.90;;;;;;5031187;28;20055;-69
2022/12/23 07:08:19;;;;;;;97.40;24.50;;;6.80;99.90;;;;;;5029848;28;20048;-70
2022/12/23 07:10:44;;;;;;;135.40;28.92;;;6.80;99.90;;;;;;5029507;28;20397;-68
2022/12/23 07:13:11;;;;;;;147.85;30.45;;;6.80;99.90;;;;;;5029740;28;20117;-69
2022/12/23 07:15:37;;;;;;;66.35;19.95;;;6.90;99.90;;;;;;5029795;28;20051;-69
2022/12/23 07:18:03;;;;;;;74.10;21.77;;;6.80;99.90;;;;;;5029839;28;20072;-70
2022/12/23 07:20:29;;;;;;;73.75;21.90;;;6.90;99.90;;;;;;5029776;28;20498;-70
2022/12/23 07:22:56;;;;;;;60.10;20.30;;;6.90;99.90;;;;;;5029518;28;20042;-70
2022/12/23 07:25:22;;;;;;;169.73;29.52;;;6.90;99.90;;;;;;5029120;28;20049;-70
2022/12/23 07:27:54;;;;;;;136.15;27.52;;;6.90;99.90;;;;;;5029357;28;20041;-70
2022/12/23 07:30:22;;;;;;;70.18;20.95;;;6.90;99.90;;;;;;5029364;28;20099;-71
2022/12/23 07:32:48;;;;;;;176.68;31.92;;;6.90;99.90;;;;;;5029542;28;20586;-69
2022/12/23 07:35:14;;;;;;;191.23;30.40;;;7.00;99.90;;;;;;5029178;28;20067;-70
2022/12/23 07:37:40;;;;;;;54.95;20.15;;;6.90;99.90;;;;;;5029260;28;20049;-70
2022/12/23 07:40:07;;;;;;;71.10;22.27;;;6.90;99.90;;;;;;5028890;28;20135;-70
2022/12/23 07:42:33;;;;;;;102.82;24.58;;;6.90;99.90;;;;;;5028984;28;20128;-70
2022/12/23 07:44:59;;;;;;;71.32;22.58;;;7.00;99.90;;;;;;5012729;28;20128;-70
2022/12/23 07:47:25;;;;;;;118.97;27.35;;;6.90;99.90;;;;;;5029268;28;20132;-70
2022/12/23 07:49:51;;;;;;;64.40;22.52;;;7.00;99.90;;;;;;5029224;28;20413;-70
2022/12/23 07:52:17;;;;;;;123.80;28.40;;;7.00;99.90;;;;;;5028636;28;20537;-69
2022/12/23 07:54:42;;;;;;;121.00;28.35;;;7.00;99.90;;;;;;5028647;28;20037;-70
2022/12/23 07:57:08;;;;;;;76.50;23.27;;;7.00;99.90;;;;;;5030394;28;20048;-70
2022/12/23 07:59:34;;;;;;;81.57;25.83;;;7.00;99.90;;;;;;5028832;28;20037;-70
2022/12/23 08:02:00;;;;;;;195.50;36.28;;;7.00;99.90;;;;;;5029076;28;20049;-70
2022/12/23 08:04:26;;;;;;;149.18;31.20;;;7.00;99.90;;;;;;5028726;28;20461;-70
2022/12/23 08:06:51;;;;;;;198.52;34.60;;;7.00;99.90;;;;;;5028736;28;20049;-70
2022/12/23 08:09:17;;;;;;;169.57;27.42;;;7.00;99.90;;;;;;5029477;28;20041;-70
2022/12/23 08:11:44;;;;;;;95.43;24.23;;;7.00;99.90;;;;;;5028696;28;20041;-70
2022/12/23 08:14:10;;;;;;;102.30;24.77;;;7.00;99.90;;;;;;5030043;28;20042;-70
2022/12/23 08:16:36;;;;;;;57.55;20.63;;;7.10;99.90;;;;;;5028828;28;20041;-69
2022/12/23 08:19:03;;;;;;;148.50;31.58;;;7.10;99.90;;;;;;5028585;28;20209;-70
2022/12/23 08:21:29;;;;;;;109.90;26.10;;;7.10;99.90;;;;;;5028931;28;20056;-70
2022/12/23 08:23:55;;;;;;;185.55;32.42;;;7.10;99.90;;;;;;5028291;28;20128;-71
2022/12/23 08:26:22;;;;;;;158.18;28.92;;;7.10;99.90;;;;;;5028251;28;20041;-68
2022/12/23 08:28:52;;;;;;;106.00;25.77;;;7.10;99.90;;;;;;5028278;28;20045;-69
2022/12/23 08:31:19;;;;;;;114.63;26.77;;;7.10;99.90;;;;;;5028490;28;20037;-69
2022/12/23 08:33:47;;;;;;;197.40;34.35;;;7.10;99.90;;;;;;5029791;28;20124;-69
2022/12/23 08:36:15;;;;;;;106.97;25.63;;;7.10;99.90;;;;;;5029395;28;20053;-69
2022/12/23 08:38:42;;;;;;;154.02;30.40;;;7.10;99.90;;;;;;5029154;28;20104;-71
2022/12/23 08:41:10;;;;;;;147.02;31.25;;;7.10;99.90;;;;;;5029771;28;20045;-71
2022/12/23 08:43:36;;;;;;;85.72;23.92;;;7.20;99.90;;;;;;5029787;28;20072;-71
2022/12/23 08:46:02;;;;;;;116.40;26.20;;;7.20;99.90;;;;;;5029330;28;20038;-70
2022/12/23 08:48:28;;;;;;;115.18;25.35;;;7.20;99.90;;;;;;5028515;28;20110;-71
2022/12/23 08:50:54;;;;;;;199.45;36.67;;;7.20;99.90;;;;;;5027851;28;20038;-71
2022/12/23 08:53:19;;;;;;;83.75;21.58;;;7.20;99.90;;;;;;5028582;28;20037;-70
2022/12/23 08:55:46;;;;;;;79.38;22.17;;;7.20;99.90;;;;;;5028231;28;20041;-71
2022/12/23 08:58:14;;;;;;;106.00;25.73;;;7.20;99.90;;;;;;5029849;28;20037;-71
2022/12/23 09:00:40;;;;;;;54.90;19.00;;;7.30;99.90;;;;;;5028338;28;20045;-70
2022/12/23 09:03:07;;;;;;;134.98;29.52;;;7.30;99.90;;;;;;5027763;28;20050;-69
2022/12/23 09:05:37;;;;;;;115.97;28.02;;;7.30;99.90;;;;;;5030631;28;20048;-69
2022/12/23 09:08:03;;;;;;;73.68;22.90;;;7.30;99.90;;;;;;5031027;28;20095;-69
2022/12/23 09:10:29;;;;;;;98.50;24.25;;;7.30;99.90;;;;;;5031307;28;20041;-69
2022/12/23 09:12:55;;;;;;;77.30;21.45;;;7.30;99.90;;;;;;5031295;28;20459;-69
2022/12/23 09:15:21;;;;;;;101.13;23.48;;;7.30;99.90;;;;;;5031073;28;20053;-69
2022/12/23 09:17:46;;;;;;;70.43;20.83;;;7.30;99.90;;;;;;5030833;28;20124;-69
2022/12/23 09:20:12;;;;;;;113.32;26.48;;;7.40;99.90;;;;;;5030793;28;20095;-70
2022/12/23 09:22:38;;;;;;;103.50;24.45;;;7.40;99.90;;;;;;5032013;28;20087;-69
2022/12/23 09:25:04;;;;;;;120.10;26.80;;;7.40;99.90;;;;;;5030577;28;20124;-70
2022/12/23 09:27:30;;;;;;;104.57;26.58;;;7.40;99.90;;;;;;5030852;28;20137;-70
2022/12/23 09:29:56;;;;;;;59.95;20.48;;;7.40;99.90;;;;;;5030605;28;20061;-70
2022/12/23 09:32:22;;;;;;;104.22;25.23;;;7.40;99.90;;;;;;5030780;28;20041;-70
2022/12/23 09:34:47;;;;;;;99.80;25.60;;;7.40;99.90;;;;;;5030231;28;20490;-70
2022/12/23 09:37:15;;;;;;;69.35;22.88;;;7.40;99.90;;;;;;5013833;28;20053;-69
2022/12/23 09:39:42;;;;;;;84.30;22.35;;;7.40;99.90;;;;;;5031899;28;20107;-69
2022/12/23 09:42:31;;;;;;;77.03;21.00;;;7.40;99.90;;;;;;5030663;28;20034;-69
2022/12/23 09:45:16;;;;;;;78.05;20.65;;;7.40;99.90;;;;;;5030354;28;20053;-70
2022/12/23 09:47:43;;;;;;;53.65;19.60;;;7.40;99.90;;;;;;5032127;28;20744;-70
2022/12/23 09:50:20;;;;;;;54.85;18.10;;;7.40;99.90;;;;;;5030692;28;20073;-69
2022/12/23 09:53:13;;;;;;;63.80;20.13;;;7.40;99.90;;;;;;5031025;28;20041;-69
2022/12/23 09:56:05;;;;;;;89.72;23.10;;;7.40;99.90;;;;;;5014212;28;20085;-70
2022/12/23 09:58:34;;;;;;;58.60;17.02;;;7.40;99.90;;;;;;5014548;28;20500;-70
2022/12/23 10:01:27;;;;;;;97.27;23.90;;;7.50;99.90;;;;;;5030932;28;20103;-70
2022/12/23 10:03:53;;;;;;;41.92;16.70;;;7.50;99.90;;;;;;5030492;28;20283;-69
2022/12/23 10:06:26;;;;;;;43.90;16.38;;;7.50;99.90;;;;;;5030723;28;20041;-69
2022/12/23 10:08:57;;;;;;;66.35;19.98;;;7.50;99.90;;;;;;5030851;28;20674;-69
2022/12/23 10:11:29;;;;;;;55.55;19.20;;;7.50;99.90;;;;;;5032089;28;20048;-69
2022/12/23 10:14:29;;;;;;;47.05;17.58;;;7.50;99.90;;;;;;5031014;28;20040;-70
2022/12/23 10:16:59;;;;;;;47.15;16.92;;;7.50;99.90;;;;;;5023189;28;20041;-69
2022/12/23 10:19:32;;;;;;;46.70;18.08;;;7.60;99.90;;;;;;5031678;28;20046;-69
2022/12/23 10:22:10;;;;;;;47.08;17.15;;;7.50;99.90;;;;;;5030926;28;20072;-68
2022/12/23 10:24:43;;;;;;;38.25;16.20;;;7.60;99.90;;;;;;5032308;28;20047;-69
2022/12/23 10:27:28;;;;;;;39.92;17.13;;;7.60;99.90;;;;;;5030649;28;20034;-69
2022/12/23 10:29:57;;;;;;;39.88;16.45;;;7.60;99.90;;;;;;5031785;28;20601;-69
2022/12/23 10:32:43;;;;;;;40.80;17.30;;;7.60;99.90;;;;;;5031594;28;20044;-69
2022/12/23 10:35:35;;;;;;;42.63;17.85;;;7.60;99.90;;;;;;5031438;28;20496;-69
2022/12/23 10:38:22;;;;;;;49.50;17.98;;;7.60;99.90;;;;;;5031522;28;20052;-69
2022/12/23 10:41:24;;;;;;;36.38;15.40;;;7.70;99.90;;;;;;5028685;28;20053;-68
2022/12/23 10:44:16;;;;;;;31.67;13.38;;;7.70;99.90;;;;;;5030863;28;20112;-67
2022/12/23 10:47:14;;;;;;;42.67;16.33;;;7.70;99.90;;;;;;5027043;28;20045;-69
2022/12/23 10:50:01;;;;;;;42.28;16.48;;;7.80;99.90;;;;;;5025706;28;20046;-69
2022/12/23 10:52:31;;;;;;;40.92;15.00;;;7.80;99.90;;;;;;5030594;28;20045;-69
2022/12/23 10:54:56;;;;;;;33.75;14.48;;;7.80;99.90;;;;;;5029838;28;20048;-69
2022/12/23 10:57:24;;;;;;;47.03;19.67;;;7.80;99.90;;;;;;5030136;28;20041;-69
2022/12/23 10:59:51;;;;;;;47.42;22.73;;;7.80;99.90;;;;;;5031237;28;20106;-68
2022/12/23 11:02:44;;;;;;;46.28;25.23;;;7.80;99.90;;;;;;5029292;28;20037;-69
2022/12/23 11:05:16;;;;;;;39.47;15.13;;;7.80;99.90;;;;;;5029654;28;20041;-69
2022/12/23 11:07:43;;;;;;;32.08;15.00;;;7.80;99.90;;;;;;5029442;28;20037;-69
2022/12/23 11:10:18;;;;;;;40.40;19.10;;;7.80;99.90;;;;;;5046190;28;20428;-69
2022/12/23 11:12:53;;;;;;;32.05;14.75;;;7.80;99.90;;;;;;5028654;28;20157;-69
2022/12/23 11:15:27;;;;;;;39.35;15.98;;;7.90;99.90;;;;;;5028599;28;20041;-69
2022/12/23 11:18:08;;;;;;;33.55;14.05;;;7.90;99.90;;;;;;5028130;28;20135;-69
2022/12/23 11:20:35;;;;;;;33.22;14.32;;;7.90;99.90;;;;;;5028264;28;20040;-69
2022/12/23 11:23:03;;;;;;;35.10;15.48;;;7.90;99.90;;;;;;5029805;28;20045;-70
2022/12/23 11:25:41;;;;;;;34.97;13.93;;;7.90;99.90;;;;;;5028483;28;20083;-69
2022/12/23 11:28:09;;;;;;;25.52;12.02;;;7.90;99.90;;;;;;5027370;28;20042;-69
2022/12/23 11:30:57;;;;;;;27.42;12.60;;;7.90;99.90;;;;;;5035911;28;20171;-69
2022/12/23 11:33:36;;;;;;;28.17;12.38;;;7.90;99.90;;;;;;5028073;28;20497;-69
2022/12/23 11:36:11;;;;;;;27.45;12.85;;;7.90;99.90;;;;;;5027624;28;20564;-69
2022/12/23 11:38:50;;;;;;;30.55;14.05;;;7.90;99.90;;;;;;5027818;28;20077;-70
2022/12/23 11:41:28;;;;;;;32.20;14.27;;;7.90;99.90;;;;;;5028169;28;20391;-69
2022/12/23 11:43:59;;;;;;;23.77;13.30;;;8.00;99.90;;;;;;5028008;28;20038;-69
2022/12/23 11:46:31;;;;;;;26.90;11.20;;;7.90;99.90;;;;;;5027161;28;20490;-69
2022/12/23 11:49:25;;;;;;;27.75;12.75;;;8.00;99.90;;;;;;5027774;28;20099;-69
2022/12/23 11:52:04;;;;;;;29.38;12.85;;;8.00;99.90;;;;;;5027702;28;20068;-69
2022/12/23 11:54:31;;;;;;;31.10;13.25;;;8.00;99.90;;;;;;5027900;28;20490;-69
2022/12/23 11:56:59;;;;;;;23.40;12.18;;;8.00;99.90;;;;;;5027509;28;20126;-68
2022/12/23 11:59:30;;;;;;;24.70;11.02;;;8.00;99.90;;;;;;5027283;28;20458;-68
2022/12/23 12:02:02;;;;;;;30.88;13.80;;;8.00;99.90;;;;;;5027750;28;20045;-68
2022/12/23 12:04:32;;;;;;;24.38;11.18;;;7.90;99.90;;;;;;5027551;28;20050;-68
2022/12/23 12:06:59;;;;;;;26.77;11.88;;;7.90;99.90;;;;;;5028808;28;20049;-68
2022/12/23 12:09:27;;;;;;;28.33;12.82;;;8.00;99.90;;;;;;5029073;28;20045;-68
2022/12/23 12:12:05;;;;;;;28.63;13.15;;;7.90;99.90;;;;;;5028742;28;20037;-68
2022/12/23 12:14:43;;;;;;;33.65;12.77;;;7.80;99.90;;;;;;5028549;28;20060;-68
2022/12/23 12:17:36;;;;;;;29.67;12.40;;;7.80;99.90;;;;;;5027588;28;20099;-68
2022/12/23 12:20:26;;;;;;;28.25;12.52;;;7.80;99.90;;;;;;5027387;28;20048;-68
2022/12/23 12:23:02;;;;;;;28.90;12.90;;;7.80;99.90;;;;;;5027313;28;20493;-67
2022/12/23 12:25:52;;;;;;;32.20;13.63;;;7.80;99.90;;;;;;5028667;28;20045;-67
2022/12/23 12:28:28;;;;;;;27.63;12.57;;;7.80;99.90;;;;;;5027331;28;20041;-67
2022/12/23 12:31:28;;;;;;;32.97;12.93;;;7.80;99.90;;;;;;5028460;28;20276;-67
2022/12/23 12:34:04;;;;;;;28.20;13.68;;;7.80;99.90;;;;;;5016631;28;20498;-67
2022/12/23 12:36:40;;;;;;;34.50;14.05;;;7.80;99.90;;;;;;5043548;28;20106;-68
2022/12/23 12:39:19;;;;;;;25.90;10.20;;;7.70;99.90;;;;;;5032486;28;20509;-68
2022/12/23 12:42:14;;;;;;;21.02;11.05;;;7.70;99.90;;;;;;5034047;28;20084;-68
2022/12/23 12:45:19;;;;;;;27.92;12.18;;;7.70;99.90;;;;;;5026797;28;20053;-67
2022/12/23 12:48:05;;;;;;;23.95;9.88;;;7.70;99.90;;;;;;5030909;28;20065;-67
2022/12/23 12:50:41;;;;;;;27.23;12.25;;;7.80;99.90;;;;;;5031667;28;20090;-68
2022/12/23 12:53:17;;;;;;;30.05;12.50;;;7.70;99.90;;;;;;5032315;28;20560;-66
2022/12/23 12:55:50;;;;;;;24.95;12.05;;;7.70;99.90;;;;;;5030762;28;20045;-67
2022/12/23 12:58:21;;;;;;;29.80;13.27;;;7.80;99.90;;;;;;5030638;28;20060;-66
2022/12/23 13:01:31;;;;;;;27.70;12.18;;;7.80;99.90;;;;;;5031067;28;20389;-67
2022/12/23 13:04:11;;;;;;;24.38;10.85;;;7.80;99.90;;;;;;4954379;28;20046;-66
2022/12/23 13:06:57;;;;;;;23.45;10.25;;;7.80;99.90;;;;;;4954543;28;20054;-66
2022/12/23 13:09:32;;;;;;;31.65;12.50;;;7.70;99.90;;;;;;4954963;28;20434;-66
2022/12/23 13:12:21;;;;;;;31.02;12.73;;;7.80;99.90;;;;;;4954028;28;20043;-66
2022/12/23 13:15:17;;;;;;;26.13;10.98;;;7.80;99.90;;;;;;4970861;28;20082;-66